sensor_id;sensor_type;location;lat;lon;timestamp;P1;durP1;ratioP1;P2;durP2;ratioP2
25870;SDS011;13689;48.590;7.752;2023-04-24T00:01:54;1.73;;;0.68;;
25870;SDS011;13689;48.590;7.752;2023-04-24T00:04:21;0.98;;;0.55;;
25870;SDS011;13689;48.590;7.752;2023-04-24T00:06:46;2.45;;;0.40;;
25870;SDS011;13689;48.590;7.752;2023-04-24T00:09:18;1.60;;;0.70;;
25870;SDS011;13689;48.590;7.752;2023-04-24T00:11:44;2.47;;;0.70;;
25870;SDS011;13689;48.590;7.752;2023-04-24T00:14:09;2.83;;;0.68;;
25870;SDS011;13689;48.590;7.752;2023-04-24T00:16:35;0.85;;;0.70;;
25870;SDS011;13689;48.590;7.752;2023-04-24T00:19:01;1.85;;;0.68;;
25870;SDS011;13689;48.590;7.752;2023-04-24T00:21:26;1.48;;;0.60;;
25870;SDS011;13689;48.590;7.752;2023-04-24T00:23:52;0.52;;;0.52;;
25870;SDS011;13689;48.590;7.752;2023-04-24T00:26:18;0.88;;;0.63;;
25870;SDS011;13689;48.590;7.752;2023-04-24T00:28:43;3.88;;;0.80;;
25870;SDS011;13689;48.590;7.752;2023-04-24T00:31:09;2.30;;;0.90;;
25870;SDS011;13689;48.590;7.752;2023-04-24T00:33:34;4.05;;;0.98;;
25870;SDS011;13689;48.590;7.752;2023-04-24T00:36:00;3.35;;;1.38;;
25870;SDS011;13689;48.590;7.752;2023-04-24T00:38:26;0.90;;;0.80;;
25870;SDS011;13689;48.590;7.752;2023-04-24T00:40:51;7.80;;;1.00;;
25870;SDS011;13689;48.590;7.752;2023-04-24T00:43:19;1.45;;;1.10;;
25870;SDS011;13689;48.590;7.752;2023-04-24T00:45:44;2.85;;;1.10;;
25870;SDS011;13689;48.590;7.752;2023-04-24T00:48:11;2.95;;;1.02;;
25870;SDS011;13689;48.590;7.752;2023-04-24T00:50:37;2.97;;;1.10;;
25870;SDS011;13689;48.590;7.752;2023-04-24T00:53:03;2.45;;;1.15;;
25870;SDS011;13689;48.590;7.752;2023-04-24T00:55:29;4.68;;;0.95;;
25870;SDS011;13689;48.590;7.752;2023-04-24T00:57:55;2.30;;;1.00;;
25870;SDS011;13689;48.590;7.752;2023-04-24T01:00:21;1.20;;;0.90;;
25870;SDS011;13689;48.590;7.752;2023-04-24T01:02:47;1.67;;;0.90;;
25870;SDS011;13689;48.590;7.752;2023-04-24T01:05:15;0.95;;;0.90;;
25870;SDS011;13689;48.590;7.752;2023-04-24T01:07:43;2.63;;;0.90;;
25870;SDS011;13689;48.590;7.752;2023-04-24T01:10:10;2.38;;;0.90;;
25870;SDS011;13689;48.590;7.752;2023-04-24T01:12:37;3.30;;;1.00;;
25870;SDS011;13689;48.590;7.752;2023-04-24T01:15:03;1.10;;;1.00;;
25870;SDS011;13689;48.590;7.752;2023-04-24T01:17:30;3.13;;;0.98;;
25870;SDS011;13689;48.590;7.752;2023-04-24T01:19:56;1.88;;;0.95;;
25870;SDS011;13689;48.590;7.752;2023-04-24T01:22:22;2.25;;;0.90;;
25870;SDS011;13689;48.590;7.752;2023-04-24T01:24:48;1.60;;;1.00;;
25870;SDS011;13689;48.590;7.752;2023-04-24T01:27:13;2.08;;;1.05;;
25870;SDS011;13689;48.590;7.752;2023-04-24T01:29:40;2.00;;;1.08;;
25870;SDS011;13689;48.590;7.752;2023-04-24T01:32:05;1.98;;;0.80;;
25870;SDS011;13689;48.590;7.752;2023-04-24T01:34:32;1.15;;;0.90;;
25870;SDS011;13689;48.590;7.752;2023-04-24T01:36:58;1.08;;;0.80;;
25870;SDS011;13689;48.590;7.752;2023-04-24T01:39:24;0.93;;;0.85;;
25870;SDS011;13689;48.590;7.752;2023-04-24T01:41:50;1.00;;;0.90;;
25870;SDS011;13689;48.590;7.752;2023-04-24T01:44:17;1.90;;;1.10;;
25870;SDS011;13689;48.590;7.752;2023-04-24T01:46:43;0.93;;;0.88;;
25870;SDS011;13689;48.590;7.752;2023-04-24T01:49:08;3.53;;;1.48;;
25870;SDS011;13689;48.590;7.752;2023-04-24T01:51:34;2.30;;;1.35;;
25870;SDS011;13689;48.590;7.752;2023-04-24T01:54:00;0.88;;;0.75;;
25870;SDS011;13689;48.590;7.752;2023-04-24T01:56:25;2.33;;;0.80;;
25870;SDS011;13689;48.590;7.752;2023-04-24T01:58:54;1.90;;;0.90;;
25870;SDS011;13689;48.590;7.752;2023-04-24T02:01:21;1.40;;;0.75;;
25870;SDS011;13689;48.590;7.752;2023-04-24T02:03:48;1.80;;;1.10;;
25870;SDS011;13689;48.590;7.752;2023-04-24T02:06:14;2.40;;;0.90;;
25870;SDS011;13689;48.590;7.752;2023-04-24T02:08:39;1.88;;;1.10;;
25870;SDS011;13689;48.590;7.752;2023-04-24T02:11:05;2.92;;;0.73;;
25870;SDS011;13689;48.590;7.752;2023-04-24T02:13:31;0.70;;;0.70;;
25870;SDS011;13689;48.590;7.752;2023-04-24T02:15:57;1.58;;;0.77;;
25870;SDS011;13689;48.590;7.752;2023-04-24T02:18:23;2.10;;;1.05;;
25870;SDS011;13689;48.590;7.752;2023-04-24T02:20:49;1.85;;;0.82;;
25870;SDS011;13689;48.590;7.752;2023-04-24T02:23:15;3.55;;;1.02;;
25870;SDS011;13689;48.590;7.752;2023-04-24T02:25:40;1.08;;;0.80;;
25870;SDS011;13689;48.590;7.752;2023-04-24T02:28:06;1.38;;;0.55;;
25870;SDS011;13689;48.590;7.752;2023-04-24T02:30:31;1.63;;;0.77;;
25870;SDS011;13689;48.590;7.752;2023-04-24T02:32:57;0.45;;;0.40;;
25870;SDS011;13689;48.590;7.752;2023-04-24T02:35:23;2.22;;;0.73;;
25870;SDS011;13689;48.590;7.752;2023-04-24T02:37:48;0.77;;;0.50;;
25870;SDS011;13689;48.590;7.752;2023-04-24T02:40:14;0.95;;;0.82;;
25870;SDS011;13689;48.590;7.752;2023-04-24T02:42:39;1.88;;;0.70;;
25870;SDS011;13689;48.590;7.752;2023-04-24T02:45:05;4.00;;;0.60;;
25870;SDS011;13689;48.590;7.752;2023-04-24T02:47:31;0.88;;;0.60;;
25870;SDS011;13689;48.590;7.752;2023-04-24T02:49:57;5.78;;;1.27;;
25870;SDS011;13689;48.590;7.752;2023-04-24T02:52:22;2.72;;;1.00;;
25870;SDS011;13689;48.590;7.752;2023-04-24T02:54:48;3.33;;;1.20;;
25870;SDS011;13689;48.590;7.752;2023-04-24T02:57:14;2.42;;;1.08;;
25870;SDS011;13689;48.590;7.752;2023-04-24T02:59:40;1.42;;;1.10;;
25870;SDS011;13689;48.590;7.752;2023-04-24T03:02:05;1.20;;;1.10;;
25870;SDS011;13689;48.590;7.752;2023-04-24T03:04:31;1.98;;;1.30;;
25870;SDS011;13689;48.590;7.752;2023-04-24T03:06:57;2.67;;;1.30;;
25870;SDS011;13689;48.590;7.752;2023-04-24T03:09:23;6.05;;;1.20;;
25870;SDS011;13689;48.590;7.752;2023-04-24T03:11:48;3.53;;;1.23;;
25870;SDS011;13689;48.590;7.752;2023-04-24T03:14:14;1.50;;;1.40;;
25870;SDS011;13689;48.590;7.752;2023-04-24T03:16:40;4.18;;;1.40;;
25870;SDS011;13689;48.590;7.752;2023-04-24T03:19:06;2.47;;;1.50;;
25870;SDS011;13689;48.590;7.752;2023-04-24T03:21:31;3.60;;;1.10;;
25870;SDS011;13689;48.590;7.752;2023-04-24T03:23:58;3.33;;;1.35;;
25870;SDS011;13689;48.590;7.752;2023-04-24T03:26:23;4.10;;;1.55;;
25870;SDS011;13689;48.590;7.752;2023-04-24T03:28:49;1.75;;;1.40;;
25870;SDS011;13689;48.590;7.752;2023-04-24T03:31:15;4.10;;;1.38;;
25870;SDS011;13689;48.590;7.752;2023-04-24T03:33:41;1.90;;;1.23;;
25870;SDS011;13689;48.590;7.752;2023-04-24T03:36:07;2.25;;;1.40;;
25870;SDS011;13689;48.590;7.752;2023-04-24T03:38:32;3.78;;;1.50;;
25870;SDS011;13689;48.590;7.752;2023-04-24T03:40:58;2.17;;;1.33;;
25870;SDS011;13689;48.590;7.752;2023-04-24T03:43:24;2.90;;;1.73;;
25870;SDS011;13689;48.590;7.752;2023-04-24T03:45:49;3.08;;;1.83;;
25870;SDS011;13689;48.590;7.752;2023-04-24T03:48:15;1.80;;;1.67;;
25870;SDS011;13689;48.590;7.752;2023-04-24T03:50:41;2.13;;;1.52;;
25870;SDS011;13689;48.590;7.752;2023-04-24T03:53:06;1.90;;;1.70;;
25870;SDS011;13689;48.590;7.752;2023-04-24T03:55:33;6.68;;;2.00;;
25870;SDS011;13689;48.590;7.752;2023-04-24T03:57:58;4.80;;;1.45;;
25870;SDS011;13689;48.590;7.752;2023-04-24T04:00:24;1.67;;;1.42;;
25870;SDS011;13689;48.590;7.752;2023-04-24T04:02:50;5.35;;;1.67;;
25870;SDS011;13689;48.590;7.752;2023-04-24T04:05:16;2.20;;;1.30;;
25870;SDS011;13689;48.590;7.752;2023-04-24T04:07:42;1.27;;;1.10;;
25870;SDS011;13689;48.590;7.752;2023-04-24T04:10:07;2.08;;;1.50;;
25870;SDS011;13689;48.590;7.752;2023-04-24T04:12:33;1.58;;;1.00;;
25870;SDS011;13689;48.590;7.752;2023-04-24T04:14:59;1.10;;;1.00;;
25870;SDS011;13689;48.590;7.752;2023-04-24T04:17:24;2.35;;;1.00;;
25870;SDS011;13689;48.590;7.752;2023-04-24T04:19:50;0.70;;;0.70;;
25870;SDS011;13689;48.590;7.752;2023-04-24T04:22:16;3.50;;;0.93;;
25870;SDS011;13689;48.590;7.752;2023-04-24T04:24:42;1.58;;;0.75;;
25870;SDS011;13689;48.590;7.752;2023-04-24T04:27:08;0.88;;;0.80;;
25870;SDS011;13689;48.590;7.752;2023-04-24T04:29:33;2.50;;;0.95;;
25870;SDS011;13689;48.590;7.752;2023-04-24T04:32:00;0.77;;;0.77;;
25870;SDS011;13689;48.590;7.752;2023-04-24T04:34:27;1.42;;;1.00;;
25870;SDS011;13689;48.590;7.752;2023-04-24T04:36:54;1.00;;;0.90;;
25870;SDS011;13689;48.590;7.752;2023-04-24T04:39:20;0.60;;;0.60;;
25870;SDS011;13689;48.590;7.752;2023-04-24T04:41:46;0.80;;;0.80;;
25870;SDS011;13689;48.590;7.752;2023-04-24T04:44:13;2.17;;;0.70;;
25870;SDS011;13689;48.590;7.752;2023-04-24T04:46:39;0.95;;;0.82;;
25870;SDS011;13689;48.590;7.752;2023-04-24T04:49:06;1.65;;;0.90;;
25870;SDS011;13689;48.590;7.752;2023-04-24T04:51:33;0.90;;;0.90;;
25870;SDS011;13689;48.590;7.752;2023-04-24T04:53:59;3.00;;;0.80;;
25870;SDS011;13689;48.590;7.752;2023-04-24T04:56:25;1.70;;;1.00;;
25870;SDS011;13689;48.590;7.752;2023-04-24T04:58:51;0.77;;;0.77;;
25870;SDS011;13689;48.590;7.752;2023-04-24T05:01:16;0.90;;;0.90;;
25870;SDS011;13689;48.590;7.752;2023-04-24T05:03:42;0.98;;;0.98;;
25870;SDS011;13689;48.590;7.752;2023-04-24T05:06:08;3.00;;;1.00;;
25870;SDS011;13689;48.590;7.752;2023-04-24T05:08:33;3.45;;;0.88;;
25870;SDS011;13689;48.590;7.752;2023-04-24T05:10:59;1.10;;;1.10;;
25870;SDS011;13689;48.590;7.752;2023-04-24T05:13:25;1.10;;;1.00;;
25870;SDS011;13689;48.590;7.752;2023-04-24T05:15:51;1.58;;;1.15;;
25870;SDS011;13689;48.590;7.752;2023-04-24T05:18:16;1.30;;;1.02;;
25870;SDS011;13689;48.590;7.752;2023-04-24T05:20:42;4.57;;;1.10;;
25870;SDS011;13689;48.590;7.752;2023-04-24T05:23:08;1.67;;;0.95;;
25870;SDS011;13689;48.590;7.752;2023-04-24T05:25:34;2.00;;;1.30;;
25870;SDS011;13689;48.590;7.752;2023-04-24T05:28:01;1.35;;;1.08;;
25870;SDS011;13689;48.590;7.752;2023-04-24T05:30:27;1.00;;;0.90;;
25870;SDS011;13689;48.590;7.752;2023-04-24T05:32:53;2.13;;;1.10;;
25870;SDS011;13689;48.590;7.752;2023-04-24T05:35:18;1.38;;;1.27;;
25870;SDS011;13689;48.590;7.752;2023-04-24T05:37:44;0.80;;;0.80;;
25870;SDS011;13689;48.590;7.752;2023-04-24T05:40:10;1.83;;;1.23;;
25870;SDS011;13689;48.590;7.752;2023-04-24T05:42:36;1.80;;;0.88;;
25870;SDS011;13689;48.590;7.752;2023-04-24T05:45:02;1.52;;;1.08;;
25870;SDS011;13689;48.590;7.752;2023-04-24T05:47:28;4.32;;;1.48;;
25870;SDS011;13689;48.590;7.752;2023-04-24T05:49:54;1.77;;;1.25;;
25870;SDS011;13689;48.590;7.752;2023-04-24T05:52:20;2.28;;;1.48;;
25870;SDS011;13689;48.590;7.752;2023-04-24T05:54:45;2.75;;;1.70;;
25870;SDS011;13689;48.590;7.752;2023-04-24T05:57:11;2.20;;;1.30;;
25870;SDS011;13689;48.590;7.752;2023-04-24T05:59:37;3.30;;;1.58;;
25870;SDS011;13689;48.590;7.752;2023-04-24T06:02:06;2.70;;;1.20;;
25870;SDS011;13689;48.590;7.752;2023-04-24T06:04:32;2.35;;;1.23;;
25870;SDS011;13689;48.590;7.752;2023-04-24T06:06:58;3.05;;;1.08;;
25870;SDS011;13689;48.590;7.752;2023-04-24T06:09:24;2.40;;;1.23;;
25870;SDS011;13689;48.590;7.752;2023-04-24T06:11:50;1.85;;;1.38;;
25870;SDS011;13689;48.590;7.752;2023-04-24T06:14:19;1.42;;;1.20;;
25870;SDS011;13689;48.590;7.752;2023-04-24T06:16:46;3.47;;;1.10;;
25870;SDS011;13689;48.590;7.752;2023-04-24T06:19:12;1.20;;;1.10;;
25870;SDS011;13689;48.590;7.752;2023-04-24T06:21:37;2.42;;;1.15;;
25870;SDS011;13689;48.590;7.752;2023-04-24T06:24:03;3.45;;;1.30;;
25870;SDS011;13689;48.590;7.752;2023-04-24T06:26:31;2.00;;;1.17;;
25870;SDS011;13689;48.590;7.752;2023-04-24T06:28:57;1.85;;;0.85;;
25870;SDS011;13689;48.590;7.752;2023-04-24T06:31:24;2.25;;;0.80;;
25870;SDS011;13689;48.590;7.752;2023-04-24T06:33:49;3.25;;;0.73;;
25870;SDS011;13689;48.590;7.752;2023-04-24T06:36:15;1.73;;;0.75;;
25870;SDS011;13689;48.590;7.752;2023-04-24T06:38:41;2.97;;;1.20;;
25870;SDS011;13689;48.590;7.752;2023-04-24T06:41:07;1.48;;;0.90;;
25870;SDS011;13689;48.590;7.752;2023-04-24T06:43:33;2.75;;;0.75;;
25870;SDS011;13689;48.590;7.752;2023-04-24T06:45:59;1.73;;;1.00;;
25870;SDS011;13689;48.590;7.752;2023-04-24T06:48:25;1.75;;;0.98;;
25870;SDS011;13689;48.590;7.752;2023-04-24T06:50:51;2.90;;;1.65;;
25870;SDS011;13689;48.590;7.752;2023-04-24T06:53:17;1.15;;;0.80;;
25870;SDS011;13689;48.590;7.752;2023-04-24T06:55:42;1.40;;;1.05;;
25870;SDS011;13689;48.590;7.752;2023-04-24T06:58:11;1.70;;;1.10;;
25870;SDS011;13689;48.590;7.752;2023-04-24T07:00:37;1.00;;;0.90;;
25870;SDS011;13689;48.590;7.752;2023-04-24T07:03:03;5.22;;;0.90;;
25870;SDS011;13689;48.590;7.752;2023-04-24T07:05:30;2.42;;;0.70;;
25870;SDS011;13689;48.590;7.752;2023-04-24T07:07:56;2.35;;;0.80;;
25870;SDS011;13689;48.590;7.752;2023-04-24T07:10:23;3.83;;;1.55;;
25870;SDS011;13689;48.590;7.752;2023-04-24T07:12:49;1.02;;;0.82;;
25870;SDS011;13689;48.590;7.752;2023-04-24T07:15:15;4.78;;;0.90;;
25870;SDS011;13689;48.590;7.752;2023-04-24T07:17:41;5.95;;;1.05;;
25870;SDS011;13689;48.590;7.752;2023-04-24T07:20:09;3.72;;;0.95;;
25870;SDS011;13689;48.590;7.752;2023-04-24T07:22:35;2.17;;;1.00;;
25870;SDS011;13689;48.590;7.752;2023-04-24T07:25:02;1.67;;;0.90;;
25870;SDS011;13689;48.590;7.752;2023-04-24T07:27:28;2.30;;;1.00;;
25870;SDS011;13689;48.590;7.752;2023-04-24T07:29:53;4.15;;;0.98;;
25870;SDS011;13689;48.590;7.752;2023-04-24T07:32:19;5.22;;;1.35;;
25870;SDS011;13689;48.590;7.752;2023-04-24T07:34:45;4.20;;;1.05;;
25870;SDS011;13689;48.590;7.752;2023-04-24T07:37:10;3.00;;;0.90;;
25870;SDS011;13689;48.590;7.752;2023-04-24T07:39:36;1.20;;;0.55;;
25870;SDS011;13689;48.590;7.752;2023-04-24T07:42:02;3.35;;;0.80;;
25870;SDS011;13689;48.590;7.752;2023-04-24T07:44:28;1.95;;;0.63;;
25870;SDS011;13689;48.590;7.752;2023-04-24T07:46:54;2.85;;;1.10;;
25870;SDS011;13689;48.590;7.752;2023-04-24T07:49:20;5.55;;;1.15;;
25870;SDS011;13689;48.590;7.752;2023-04-24T07:51:46;3.08;;;1.00;;
25870;SDS011;13689;48.590;7.752;2023-04-24T07:54:12;1.42;;;1.13;;
25870;SDS011;13689;48.590;7.752;2023-04-24T07:56:37;1.30;;;0.70;;
25870;SDS011;13689;48.590;7.752;2023-04-24T07:59:04;4.75;;;0.90;;
25870;SDS011;13689;48.590;7.752;2023-04-24T08:01:29;1.73;;;0.82;;
25870;SDS011;13689;48.590;7.752;2023-04-24T08:03:55;1.08;;;0.98;;
25870;SDS011;13689;48.590;7.752;2023-04-24T08:06:21;1.17;;;0.70;;
25870;SDS011;13689;48.590;7.752;2023-04-24T08:08:47;2.40;;;0.68;;
25870;SDS011;13689;48.590;7.752;2023-04-24T08:11:12;2.20;;;0.70;;
25870;SDS011;13689;48.590;7.752;2023-04-24T08:13:40;0.90;;;0.63;;
25870;SDS011;13689;48.590;7.752;2023-04-24T08:16:06;2.38;;;0.75;;
25870;SDS011;13689;48.590;7.752;2023-04-24T08:18:33;0.65;;;0.60;;
25870;SDS011;13689;48.590;7.752;2023-04-24T08:21:00;1.38;;;0.68;;
25870;SDS011;13689;48.590;7.752;2023-04-24T08:23:26;3.50;;;0.50;;
25870;SDS011;13689;48.590;7.752;2023-04-24T08:25:52;2.83;;;1.45;;
25870;SDS011;13689;48.590;7.752;2023-04-24T08:28:17;2.50;;;0.90;;
25870;SDS011;13689;48.590;7.752;2023-04-24T08:30:45;1.03;;;0.60;;
25870;SDS011;13689;48.590;7.752;2023-04-24T08:33:12;1.60;;;0.57;;
25870;SDS011;13689;48.590;7.752;2023-04-24T08:35:38;1.55;;;0.70;;
25870;SDS011;13689;48.590;7.752;2023-04-24T08:38:04;1.73;;;0.70;;
25870;SDS011;13689;48.590;7.752;2023-04-24T08:40:29;2.15;;;0.70;;
25870;SDS011;13689;48.590;7.752;2023-04-24T08:42:58;0.50;;;0.50;;
25870;SDS011;13689;48.590;7.752;2023-04-24T08:45:25;2.05;;;0.80;;
25870;SDS011;13689;48.590;7.752;2023-04-24T08:47:52;1.15;;;0.90;;
25870;SDS011;13689;48.590;7.752;2023-04-24T08:50:21;2.20;;;0.98;;
25870;SDS011;13689;48.590;7.752;2023-04-24T08:52:49;1.83;;;0.73;;
25870;SDS011;13689;48.590;7.752;2023-04-24T08:55:16;2.05;;;0.60;;
25870;SDS011;13689;48.590;7.752;2023-04-24T08:57:45;1.10;;;0.70;;
25870;SDS011;13689;48.590;7.752;2023-04-24T09:00:15;1.60;;;0.65;;
25870;SDS011;13689;48.590;7.752;2023-04-24T09:02:42;2.85;;;0.73;;
25870;SDS011;13689;48.590;7.752;2023-04-24T09:05:08;0.68;;;0.63;;
25870;SDS011;13689;48.590;7.752;2023-04-24T09:07:35;2.38;;;0.70;;
25870;SDS011;13689;48.590;7.752;2023-04-24T09:10:04;3.20;;;1.00;;
25870;SDS011;13689;48.590;7.752;2023-04-24T09:12:31;1.25;;;0.70;;
25870;SDS011;13689;48.590;7.752;2023-04-24T09:14:57;0.77;;;0.77;;
25870;SDS011;13689;48.590;7.752;2023-04-24T09:17:24;3.22;;;0.65;;
25870;SDS011;13689;48.590;7.752;2023-04-24T09:19:52;2.88;;;0.70;;
25870;SDS011;13689;48.590;7.752;2023-04-24T09:22:17;2.05;;;0.80;;
25870;SDS011;13689;48.590;7.752;2023-04-24T09:24:44;1.30;;;0.77;;
25870;SDS011;13689;48.590;7.752;2023-04-24T09:27:10;2.53;;;1.13;;
25870;SDS011;13689;48.590;7.752;2023-04-24T09:29:37;1.02;;;0.80;;
25870;SDS011;13689;48.590;7.752;2023-04-24T09:32:19;3.70;;;1.00;;
25870;SDS011;13689;48.590;7.752;2023-04-24T09:35:04;1.38;;;1.10;;
25870;SDS011;13689;48.590;7.752;2023-04-24T09:37:35;2.08;;;1.00;;
25870;SDS011;13689;48.590;7.752;2023-04-24T09:40:10;1.85;;;0.90;;
25870;SDS011;13689;48.590;7.752;2023-04-24T09:42:51;3.40;;;0.77;;
25870;SDS011;13689;48.590;7.752;2023-04-24T09:45:18;4.22;;;0.73;;
25870;SDS011;13689;48.590;7.752;2023-04-24T09:47:45;1.02;;;0.90;;
25870;SDS011;13689;48.590;7.752;2023-04-24T09:52:41;2.85;;;0.75;;
25870;SDS011;13689;48.590;7.752;2023-04-24T09:55:10;1.10;;;0.60;;
25870;SDS011;13689;48.590;7.752;2023-04-24T09:57:46;1.10;;;0.60;;
25870;SDS011;13689;48.590;7.752;2023-04-24T10:00:19;0.55;;;0.55;;
25870;SDS011;13689;48.590;7.752;2023-04-24T10:02:54;0.85;;;0.70;;
25870;SDS011;13689;48.590;7.752;2023-04-24T10:05:24;2.38;;;0.70;;
25870;SDS011;13689;48.590;7.752;2023-04-24T10:07:55;0.95;;;0.55;;
25870;SDS011;13689;48.590;7.752;2023-04-24T10:12:57;0.93;;;0.77;;
25870;SDS011;13689;48.590;7.752;2023-04-24T10:17:51;0.50;;;0.45;;
25870;SDS011;13689;48.590;7.752;2023-04-24T10:20:21;1.73;;;0.75;;
25870;SDS011;13689;48.590;7.752;2023-04-24T10:22:49;2.40;;;1.00;;
25870;SDS011;13689;48.590;7.752;2023-04-24T10:25:22;0.93;;;0.75;;
25870;SDS011;13689;48.590;7.752;2023-04-24T10:27:49;2.45;;;1.10;;
25870;SDS011;13689;48.590;7.752;2023-04-24T10:30:16;1.95;;;1.05;;
25870;SDS011;13689;48.590;7.752;2023-04-24T10:32:43;0.80;;;0.73;;
25870;SDS011;13689;48.590;7.752;2023-04-24T10:35:09;1.08;;;1.00;;
25870;SDS011;13689;48.590;7.752;2023-04-24T10:37:38;1.48;;;1.00;;
25870;SDS011;13689;48.590;7.752;2023-04-24T10:40:07;1.00;;;0.85;;
25870;SDS011;13689;48.590;7.752;2023-04-24T10:42:39;2.13;;;0.85;;
25870;SDS011;13689;48.590;7.752;2023-04-24T10:45:06;1.70;;;0.70;;
25870;SDS011;13689;48.590;7.752;2023-04-24T10:47:41;2.05;;;1.00;;
25870;SDS011;13689;48.590;7.752;2023-04-24T10:50:10;2.97;;;1.20;;
25870;SDS011;13689;48.590;7.752;2023-04-24T10:52:45;1.25;;;0.90;;
25870;SDS011;13689;48.590;7.752;2023-04-24T10:55:15;3.10;;;1.20;;
25870;SDS011;13689;48.590;7.752;2023-04-24T10:57:49;1.90;;;0.90;;
25870;SDS011;13689;48.590;7.752;2023-04-24T11:00:27;1.27;;;0.80;;
25870;SDS011;13689;48.590;7.752;2023-04-24T11:02:53;0.88;;;0.65;;
25870;SDS011;13689;48.590;7.752;2023-04-24T11:05:20;1.38;;;0.80;;
25870;SDS011;13689;48.590;7.752;2023-04-24T11:13:13;1.13;;;0.70;;
25870;SDS011;13689;48.590;7.752;2023-04-24T11:15:46;1.30;;;0.95;;
25870;SDS011;13689;48.590;7.752;2023-04-24T11:18:45;1.25;;;0.93;;
25870;SDS011;13689;48.590;7.752;2023-04-24T11:21:28;1.58;;;0.98;;
25870;SDS011;13689;48.590;7.752;2023-04-24T11:23:57;0.50;;;0.50;;
25870;SDS011;13689;48.590;7.752;2023-04-24T11:26:22;2.67;;;0.88;;
25870;SDS011;13689;48.590;7.752;2023-04-24T11:29:06;2.90;;;0.85;;
25870;SDS011;13689;48.590;7.752;2023-04-24T11:31:39;3.83;;;1.27;;
25870;SDS011;13689;48.590;7.752;2023-04-24T11:34:13;3.58;;;1.05;;
25870;SDS011;13689;48.590;7.752;2023-04-24T11:36:40;3.22;;;0.82;;
25870;SDS011;13689;48.590;7.752;2023-04-24T11:39:09;1.42;;;1.10;;
25870;SDS011;13689;48.590;7.752;2023-04-24T11:41:36;4.80;;;1.40;;
25870;SDS011;13689;48.590;7.752;2023-04-24T11:44:02;2.60;;;1.17;;
25870;SDS011;13689;48.590;7.752;2023-04-24T11:46:30;4.00;;;1.20;;
25870;SDS011;13689;48.590;7.752;2023-04-24T11:48:57;4.85;;;1.02;;
25870;SDS011;13689;48.590;7.752;2023-04-24T11:51:23;2.75;;;1.33;;
25870;SDS011;13689;48.590;7.752;2023-04-24T11:53:50;1.20;;;1.10;;
25870;SDS011;13689;48.590;7.752;2023-04-24T11:56:20;3.15;;;1.30;;
25870;SDS011;13689;48.590;7.752;2023-04-24T11:58:47;4.53;;;1.90;;
25870;SDS011;13689;48.590;7.752;2023-04-24T12:01:13;3.47;;;1.30;;
25870;SDS011;13689;48.590;7.752;2023-04-24T12:03:39;3.63;;;0.95;;
25870;SDS011;13689;48.590;7.752;2023-04-24T12:06:08;2.03;;;1.17;;
25870;SDS011;13689;48.590;7.752;2023-04-24T12:08:35;3.42;;;1.50;;
25870;SDS011;13689;48.590;7.752;2023-04-24T12:11:02;3.60;;;1.30;;
25870;SDS011;13689;48.590;7.752;2023-04-24T12:13:29;2.35;;;1.10;;
25870;SDS011;13689;48.590;7.752;2023-04-24T12:15:56;2.70;;;1.13;;
25870;SDS011;13689;48.590;7.752;2023-04-24T12:18:22;3.22;;;1.67;;
25870;SDS011;13689;48.590;7.752;2023-04-24T12:20:48;2.88;;;1.50;;
25870;SDS011;13689;48.590;7.752;2023-04-24T12:23:15;2.17;;;1.30;;
25870;SDS011;13689;48.590;7.752;2023-04-24T12:25:41;4.45;;;1.05;;
25870;SDS011;13689;48.590;7.752;2023-04-24T12:30:40;4.28;;;0.95;;
25870;SDS011;13689;48.590;7.752;2023-04-24T12:33:10;2.45;;;1.20;;
25870;SDS011;13689;48.590;7.752;2023-04-24T12:35:36;2.42;;;1.42;;
25870;SDS011;13689;48.590;7.752;2023-04-24T12:38:08;3.97;;;0.90;;
25870;SDS011;13689;48.590;7.752;2023-04-24T12:40:38;2.60;;;1.38;;
25870;SDS011;13689;48.590;7.752;2023-04-24T12:43:13;1.67;;;1.42;;
25870;SDS011;13689;48.590;7.752;2023-04-24T12:45:57;1.77;;;0.88;;
25870;SDS011;13689;48.590;7.752;2023-04-24T12:48:30;2.97;;;1.42;;
25870;SDS011;13689;48.590;7.752;2023-04-24T12:50:59;10.30;;;1.70;;
25870;SDS011;13689;48.590;7.752;2023-04-24T12:53:28;5.63;;;1.00;;
25870;SDS011;13689;48.590;7.752;2023-04-24T12:55:55;3.00;;;1.30;;
25870;SDS011;13689;48.590;7.752;2023-04-24T12:58:21;1.80;;;1.20;;
25870;SDS011;13689;48.590;7.752;2023-04-24T13:00:47;4.35;;;1.10;;
25870;SDS011;13689;48.590;7.752;2023-04-24T13:03:13;1.55;;;1.00;;
25870;SDS011;13689;48.590;7.752;2023-04-24T13:05:39;2.63;;;1.13;;
25870;SDS011;13689;48.590;7.752;2023-04-24T13:08:06;1.27;;;1.02;;
25870;SDS011;13689;48.590;7.752;2023-04-24T13:10:31;3.05;;;0.95;;
25870;SDS011;13689;48.590;7.752;2023-04-24T13:12:57;3.22;;;1.02;;
25870;SDS011;13689;48.590;7.752;2023-04-24T13:15:24;3.87;;;0.53;;
25870;SDS011;13689;48.590;7.752;2023-04-24T13:17:50;3.13;;;0.80;;
25870;SDS011;13689;48.590;7.752;2023-04-24T13:20:15;3.05;;;0.90;;
25870;SDS011;13689;48.590;7.752;2023-04-24T13:22:41;1.77;;;0.82;;
25870;SDS011;13689;48.590;7.752;2023-04-24T13:25:07;2.97;;;1.00;;
25870;SDS011;13689;48.590;7.752;2023-04-24T13:27:32;1.80;;;1.10;;
25870;SDS011;13689;48.590;7.752;2023-04-24T13:29:58;2.72;;;1.58;;
25870;SDS011;13689;48.590;7.752;2023-04-24T13:32:24;2.15;;;1.20;;
25870;SDS011;13689;48.590;7.752;2023-04-24T13:34:50;1.90;;;1.20;;
25870;SDS011;13689;48.590;7.752;2023-04-24T13:37:16;5.85;;;1.10;;
25870;SDS011;13689;48.590;7.752;2023-04-24T13:39:41;2.83;;;1.42;;
25870;SDS011;13689;48.590;7.752;2023-04-24T13:42:07;1.40;;;1.00;;
25870;SDS011;13689;48.590;7.752;2023-04-24T13:44:33;2.67;;;1.02;;
25870;SDS011;13689;48.590;7.752;2023-04-24T13:46:59;3.03;;;0.90;;
25870;SDS011;13689;48.590;7.752;2023-04-24T13:49:25;1.23;;;1.13;;
25870;SDS011;13689;48.590;7.752;2023-04-24T13:51:52;2.53;;;1.02;;
25870;SDS011;13689;48.590;7.752;2023-04-24T13:54:19;1.10;;;1.00;;
25870;SDS011;13689;48.590;7.752;2023-04-24T13:56:45;1.67;;;1.40;;
25870;SDS011;13689;48.590;7.752;2023-04-24T13:59:12;2.33;;;0.93;;
25870;SDS011;13689;48.590;7.752;2023-04-24T14:01:37;2.70;;;0.70;;
25870;SDS011;13689;48.590;7.752;2023-04-24T14:04:03;0.80;;;0.73;;
25870;SDS011;13689;48.590;7.752;2023-04-24T14:06:29;2.08;;;0.75;;
25870;SDS011;13689;48.590;7.752;2023-04-24T14:08:56;1.77;;;0.70;;
25870;SDS011;13689;48.590;7.752;2023-04-24T14:11:21;1.90;;;0.63;;
25870;SDS011;13689;48.590;7.752;2023-04-24T14:13:47;2.72;;;1.40;;
25870;SDS011;13689;48.590;7.752;2023-04-24T14:16:13;3.08;;;1.23;;
25870;SDS011;13689;48.590;7.752;2023-04-24T14:18:39;2.58;;;0.80;;
25870;SDS011;13689;48.590;7.752;2023-04-24T14:21:05;0.75;;;0.63;;
25870;SDS011;13689;48.590;7.752;2023-04-24T14:23:31;0.90;;;0.82;;
25870;SDS011;13689;48.590;7.752;2023-04-24T14:25:57;1.55;;;0.70;;
25870;SDS011;13689;48.590;7.752;2023-04-24T14:28:23;2.10;;;0.70;;
25870;SDS011;13689;48.590;7.752;2023-04-24T14:30:49;2.10;;;0.75;;
25870;SDS011;13689;48.590;7.752;2023-04-24T14:33:15;2.33;;;1.17;;
25870;SDS011;13689;48.590;7.752;2023-04-24T14:35:41;1.60;;;1.00;;
25870;SDS011;13689;48.590;7.752;2023-04-24T14:38:07;1.67;;;0.85;;
25870;SDS011;13689;48.590;7.752;2023-04-24T14:40:33;1.33;;;0.80;;
25870;SDS011;13689;48.590;7.752;2023-04-24T14:43:01;2.40;;;1.00;;
25870;SDS011;13689;48.590;7.752;2023-04-24T14:45:26;3.00;;;1.58;;
25870;SDS011;13689;48.590;7.752;2023-04-24T14:47:52;4.22;;;1.40;;
25870;SDS011;13689;48.590;7.752;2023-04-24T14:50:19;1.58;;;0.95;;
25870;SDS011;13689;48.590;7.752;2023-04-24T14:52:44;2.40;;;1.70;;
25870;SDS011;13689;48.590;7.752;2023-04-24T14:55:11;1.95;;;1.48;;
25870;SDS011;13689;48.590;7.752;2023-04-24T14:57:38;2.88;;;1.45;;
25870;SDS011;13689;48.590;7.752;2023-04-24T15:00:04;1.55;;;1.45;;
25870;SDS011;13689;48.590;7.752;2023-04-24T15:02:35;2.03;;;1.40;;